sensor_id;sensor_type;location;lat;lon;timestamp;P1;durP1;ratioP1;P2;durP2;ratioP2
14306;SDS011;7237;49.500;11.400;2022-08-21T00:00:48;19.50;;;9.05;;
14306;SDS011;7237;49.500;11.400;2022-08-21T00:03:16;12.30;;;8.18;;
14306;SDS011;7237;49.500;11.400;2022-08-21T00:05:44;17.85;;;9.15;;
14306;SDS011;7237;49.500;11.400;2022-08-21T00:08:11;16.00;;;9.27;;
14306;SDS011;7237;49.500;11.400;2022-08-21T00:10:38;39.28;;;9.30;;
14306;SDS011;7237;49.500;11.400;2022-08-21T00:13:06;69.70;;;11.65;;
14306;SDS011;7237;49.500;11.400;2022-08-21T00:15:34;12.35;;;9.00;;
14306;SDS011;7237;49.500;11.400;2022-08-21T00:18:03;13.20;;;9.55;;
14306;SDS011;7237;49.500;11.400;2022-08-21T00:20:30;16.17;;;8.40;;
14306;SDS011;7237;49.500;11.400;2022-08-21T00:22:57;14.30;;;8.68;;
14306;SDS011;7237;49.500;11.400;2022-08-21T00:25:24;15.63;;;8.73;;
14306;SDS011;7237;49.500;11.400;2022-08-21T00:27:52;26.02;;;8.55;;
14306;SDS011;7237;49.500;11.400;2022-08-21T00:30:19;29.17;;;9.52;;
14306;SDS011;7237;49.500;11.400;2022-08-21T00:32:47;11.68;;;7.55;;
14306;SDS011;7237;49.500;11.400;2022-08-21T00:35:17;12.52;;;8.15;;
14306;SDS011;7237;49.500;11.400;2022-08-21T00:37:45;13.13;;;8.10;;
14306;SDS011;7237;49.500;11.400;2022-08-21T00:40:14;35.05;;;9.30;;
14306;SDS011;7237;49.500;11.400;2022-08-21T00:42:42;14.15;;;7.68;;
14306;SDS011;7237;49.500;11.400;2022-08-21T00:45:09;10.10;;;8.00;;
14306;SDS011;7237;49.500;11.400;2022-08-21T00:47:36;11.18;;;8.63;;
14306;SDS011;7237;49.500;11.400;2022-08-21T00:50:04;17.80;;;7.55;;
14306;SDS011;7237;49.500;11.400;2022-08-21T00:52:33;46.80;;;8.77;;
14306;SDS011;7237;49.500;11.400;2022-08-21T00:55:01;36.63;;;8.05;;
14306;SDS011;7237;49.500;11.400;2022-08-21T00:57:29;28.38;;;7.72;;
14306;SDS011;7237;49.500;11.400;2022-08-21T00:59:58;34.33;;;9.43;;
14306;SDS011;7237;49.500;11.400;2022-08-21T01:02:26;31.50;;;7.85;;
14306;SDS011;7237;49.500;11.400;2022-08-21T01:04:53;148.13;;;10.50;;
14306;SDS011;7237;49.500;11.400;2022-08-21T01:07:21;72.20;;;8.88;;
14306;SDS011;7237;49.500;11.400;2022-08-21T01:09:49;86.00;;;8.48;;
14306;SDS011;7237;49.500;11.400;2022-08-21T01:12:16;35.20;;;8.25;;
14306;SDS011;7237;49.500;11.400;2022-08-21T01:14:44;21.10;;;7.93;;
14306;SDS011;7237;49.500;11.400;2022-08-21T01:17:11;17.85;;;7.50;;
14306;SDS011;7237;49.500;11.400;2022-08-21T01:19:39;142.82;;;10.00;;
14306;SDS011;7237;49.500;11.400;2022-08-21T01:22:07;22.55;;;7.10;;
14306;SDS011;7237;49.500;11.400;2022-08-21T01:24:35;66.13;;;8.05;;
14306;SDS011;7237;49.500;11.400;2022-08-21T01:27:02;35.88;;;8.38;;
14306;SDS011;7237;49.500;11.400;2022-08-21T01:29:30;27.80;;;7.30;;
14306;SDS011;7237;49.500;11.400;2022-08-21T01:31:59;49.38;;;8.60;;
14306;SDS011;7237;49.500;11.400;2022-08-21T01:34:26;23.20;;;7.72;;
14306;SDS011;7237;49.500;11.400;2022-08-21T01:36:53;18.13;;;7.40;;
14306;SDS011;7237;49.500;11.400;2022-08-21T01:39:21;117.93;;;8.57;;
14306;SDS011;7237;49.500;11.400;2022-08-21T01:41:48;51.80;;;7.45;;
14306;SDS011;7237;49.500;11.400;2022-08-21T01:44:15;53.72;;;7.70;;
14306;SDS011;7237;49.500;11.400;2022-08-21T01:46:42;50.42;;;7.95;;
14306;SDS011;7237;49.500;11.400;2022-08-21T01:49:09;61.95;;;8.35;;
14306;SDS011;7237;49.500;11.400;2022-08-21T01:51:36;38.92;;;7.65;;
14306;SDS011;7237;49.500;11.400;2022-08-21T01:54:03;13.70;;;7.10;;
14306;SDS011;7237;49.500;11.400;2022-08-21T01:56:36;16.52;;;7.05;;
14306;SDS011;7237;49.500;11.400;2022-08-21T01:59:03;68.75;;;8.65;;
14306;SDS011;7237;49.500;11.400;2022-08-21T02:01:30;48.35;;;7.78;;
14306;SDS011;7237;49.500;11.400;2022-08-21T02:03:57;20.13;;;6.75;;
14306;SDS011;7237;49.500;11.400;2022-08-21T02:06:25;15.15;;;7.32;;
14306;SDS011;7237;49.500;11.400;2022-08-21T02:08:52;77.20;;;8.85;;
14306;SDS011;7237;49.500;11.400;2022-08-21T02:11:19;153.98;;;9.88;;
14306;SDS011;7237;49.500;11.400;2022-08-21T02:13:48;127.97;;;8.27;;
14306;SDS011;7237;49.500;11.400;2022-08-21T02:16:15;150.43;;;7.88;;
14306;SDS011;7237;49.500;11.400;2022-08-21T02:18:42;73.22;;;7.07;;
14306;SDS011;7237;49.500;11.400;2022-08-21T02:21:09;57.50;;;6.95;;
14306;SDS011;7237;49.500;11.400;2022-08-21T02:23:36;62.45;;;6.50;;
14306;SDS011;7237;49.500;11.400;2022-08-21T02:26:03;54.35;;;6.90;;
14306;SDS011;7237;49.500;11.400;2022-08-21T02:28:31;118.25;;;7.10;;
14306;SDS011;7237;49.500;11.400;2022-08-21T02:31:00;116.68;;;7.93;;
14306;SDS011;7237;49.500;11.400;2022-08-21T02:33:27;49.33;;;6.25;;
14306;SDS011;7237;49.500;11.400;2022-08-21T02:35:54;35.40;;;5.38;;
14306;SDS011;7237;49.500;11.400;2022-08-21T02:38:22;31.88;;;5.47;;
14306;SDS011;7237;49.500;11.400;2022-08-21T02:40:50;7.95;;;5.18;;
14306;SDS011;7237;49.500;11.400;2022-08-21T02:43:17;13.30;;;5.07;;
14306;SDS011;7237;49.500;11.400;2022-08-21T02:45:45;34.13;;;6.30;;
14306;SDS011;7237;49.500;11.400;2022-08-21T02:48:14;84.40;;;6.43;;
14306;SDS011;7237;49.500;11.400;2022-08-21T02:50:43;105.05;;;6.90;;
14306;SDS011;7237;49.500;11.400;2022-08-21T02:53:10;20.90;;;5.40;;
14306;SDS011;7237;49.500;11.400;2022-08-21T02:55:40;24.92;;;5.60;;
14306;SDS011;7237;49.500;11.400;2022-08-21T02:58:07;41.25;;;5.70;;
14306;SDS011;7237;49.500;11.400;2022-08-21T03:00:35;54.55;;;6.60;;
14306;SDS011;7237;49.500;11.400;2022-08-21T03:03:03;62.22;;;6.05;;
14306;SDS011;7237;49.500;11.400;2022-08-21T03:05:32;42.33;;;5.22;;
14306;SDS011;7237;49.500;11.400;2022-08-21T03:07:59;22.35;;;5.72;;
14306;SDS011;7237;49.500;11.400;2022-08-21T03:10:27;15.45;;;5.20;;
14306;SDS011;7237;49.500;11.400;2022-08-21T03:12:55;13.90;;;6.13;;
14306;SDS011;7237;49.500;11.400;2022-08-21T03:15:23;12.30;;;6.05;;
14306;SDS011;7237;49.500;11.400;2022-08-21T03:17:50;28.38;;;6.20;;
14306;SDS011;7237;49.500;11.400;2022-08-21T03:20:20;29.10;;;5.82;;
14306;SDS011;7237;49.500;11.400;2022-08-21T03:22:50;54.88;;;5.85;;
14306;SDS011;7237;49.500;11.400;2022-08-21T03:25:17;19.77;;;5.43;;
14306;SDS011;7237;49.500;11.400;2022-08-21T03:27:45;168.27;;;8.15;;
14306;SDS011;7237;49.500;11.400;2022-08-21T03:30:13;70.13;;;5.80;;
14306;SDS011;7237;49.500;11.400;2022-08-21T03:32:40;36.03;;;4.90;;
14306;SDS011;7237;49.500;11.400;2022-08-21T03:35:08;54.80;;;5.15;;
14306;SDS011;7237;49.500;11.400;2022-08-21T03:37:35;46.30;;;4.20;;
14306;SDS011;7237;49.500;11.400;2022-08-21T03:40:04;179.90;;;7.33;;
14306;SDS011;7237;49.500;11.400;2022-08-21T03:42:32;41.85;;;4.30;;
14306;SDS011;7237;49.500;11.400;2022-08-21T03:44:59;226.87;;;7.53;;
14306;SDS011;7237;49.500;11.400;2022-08-21T03:47:26;86.87;;;6.13;;
14306;SDS011;7237;49.500;11.400;2022-08-21T03:49:53;43.57;;;5.07;;
14306;SDS011;7237;49.500;11.400;2022-08-21T03:52:20;37.07;;;4.40;;
14306;SDS011;7237;49.500;11.400;2022-08-21T03:54:48;123.40;;;6.60;;
14306;SDS011;7237;49.500;11.400;2022-08-21T03:57:17;45.22;;;5.00;;
14306;SDS011;7237;49.500;11.400;2022-08-21T03:59:44;95.67;;;5.50;;
14306;SDS011;7237;49.500;11.400;2022-08-21T04:02:11;57.97;;;4.80;;
14306;SDS011;7237;49.500;11.400;2022-08-21T04:04:41;59.58;;;5.35;;
14306;SDS011;7237;49.500;11.400;2022-08-21T04:07:08;55.50;;;5.05;;
14306;SDS011;7237;49.500;11.400;2022-08-21T04:09:35;56.37;;;4.97;;
14306;SDS011;7237;49.500;11.400;2022-08-21T04:12:02;50.60;;;5.10;;
14306;SDS011;7237;49.500;11.400;2022-08-21T04:14:31;52.03;;;4.57;;
14306;SDS011;7237;49.500;11.400;2022-08-21T04:16:59;67.37;;;5.27;;
14306;SDS011;7237;49.500;11.400;2022-08-21T04:19:26;67.03;;;5.27;;
14306;SDS011;7237;49.500;11.400;2022-08-21T04:21:53;125.47;;;5.68;;
14306;SDS011;7237;49.500;11.400;2022-08-21T04:24:20;65.00;;;4.72;;
14306;SDS011;7237;49.500;11.400;2022-08-21T04:26:47;46.13;;;4.43;;
14306;SDS011;7237;49.500;11.400;2022-08-21T04:29:15;50.43;;;4.90;;
14306;SDS011;7237;49.500;11.400;2022-08-21T04:31:43;53.38;;;4.63;;
14306;SDS011;7237;49.500;11.400;2022-08-21T04:34:10;26.38;;;4.30;;
14306;SDS011;7237;49.500;11.400;2022-08-21T04:36:38;44.20;;;4.63;;
14306;SDS011;7237;49.500;11.400;2022-08-21T04:39:05;114.23;;;6.20;;
14306;SDS011;7237;49.500;11.400;2022-08-21T04:41:32;104.77;;;5.20;;
14306;SDS011;7237;49.500;11.400;2022-08-21T04:43:59;44.77;;;5.03;;
14306;SDS011;7237;49.500;11.400;2022-08-21T04:46:26;72.17;;;4.70;;
14306;SDS011;7237;49.500;11.400;2022-08-21T04:48:55;68.70;;;4.73;;
14306;SDS011;7237;49.500;11.400;2022-08-21T04:51:23;40.93;;;4.60;;
14306;SDS011;7237;49.500;11.400;2022-08-21T04:53:51;99.43;;;6.13;;
14306;SDS011;7237;49.500;11.400;2022-08-21T04:56:20;136.30;;;6.37;;
14306;SDS011;7237;49.500;11.400;2022-08-21T04:58:47;34.97;;;4.33;;
14306;SDS011;7237;49.500;11.400;2022-08-21T05:01:15;91.07;;;5.37;;
14306;SDS011;7237;49.500;11.400;2022-08-21T05:03:43;116.83;;;6.43;;
14306;SDS011;7237;49.500;11.400;2022-08-21T05:06:12;92.23;;;5.50;;
14306;SDS011;7237;49.500;11.400;2022-08-21T05:08:40;200.77;;;8.27;;
14306;SDS011;7237;49.500;11.400;2022-08-21T05:11:08;90.73;;;5.27;;
14306;SDS011;7237;49.500;11.400;2022-08-21T05:13:36;74.73;;;5.90;;
14306;SDS011;7237;49.500;11.400;2022-08-21T05:16:03;50.33;;;5.30;;
14306;SDS011;7237;49.500;11.400;2022-08-21T05:18:30;63.47;;;5.30;;
14306;SDS011;7237;49.500;11.400;2022-08-21T05:20:57;85.00;;;6.47;;
14306;SDS011;7237;49.500;11.400;2022-08-21T05:23:25;93.70;;;5.80;;
14306;SDS011;7237;49.500;11.400;2022-08-21T05:25:52;101.83;;;6.17;;
14306;SDS011;7237;49.500;11.400;2022-08-21T05:28:20;119.23;;;6.43;;
14306;SDS011;7237;49.500;11.400;2022-08-21T05:30:48;64.63;;;5.20;;
14306;SDS011;7237;49.500;11.400;2022-08-21T05:33:15;37.53;;;5.57;;
14306;SDS011;7237;49.500;11.400;2022-08-21T05:35:42;36.87;;;5.57;;
14306;SDS011;7237;49.500;11.400;2022-08-21T05:38:09;21.13;;;4.93;;
14306;SDS011;7237;49.500;11.400;2022-08-21T05:40:38;13.03;;;4.73;;
14306;SDS011;7237;49.500;11.400;2022-08-21T05:43:05;22.90;;;5.47;;
14306;SDS011;7237;49.500;11.400;2022-08-21T05:45:32;16.70;;;4.90;;
14306;SDS011;7237;49.500;11.400;2022-08-21T05:48:05;35.30;;;5.00;;
14306;SDS011;7237;49.500;11.400;2022-08-21T05:50:32;30.40;;;5.13;;
14306;SDS011;7237;49.500;11.400;2022-08-21T05:52:59;34.03;;;4.90;;
14306;SDS011;7237;49.500;11.400;2022-08-21T05:55:27;13.43;;;4.80;;
14306;SDS011;7237;49.500;11.400;2022-08-21T05:57:55;18.13;;;5.25;;
14306;SDS011;7237;49.500;11.400;2022-08-21T06:00:22;19.17;;;4.65;;
14306;SDS011;7237;49.500;11.400;2022-08-21T06:02:49;32.95;;;4.80;;
14306;SDS011;7237;49.500;11.400;2022-08-21T06:05:16;11.88;;;4.05;;
14306;SDS011;7237;49.500;11.400;2022-08-21T06:07:43;25.88;;;4.93;;
14306;SDS011;7237;49.500;11.400;2022-08-21T06:10:11;27.10;;;4.97;;
14306;SDS011;7237;49.500;11.400;2022-08-21T06:12:38;19.35;;;6.03;;
14306;SDS011;7237;49.500;11.400;2022-08-21T06:15:07;18.10;;;5.13;;
14306;SDS011;7237;49.500;11.400;2022-08-21T06:17:34;10.75;;;5.05;;
14306;SDS011;7237;49.500;11.400;2022-08-21T06:20:01;24.35;;;5.40;;
14306;SDS011;7237;49.500;11.400;2022-08-21T06:22:28;18.67;;;5.90;;
14306;SDS011;7237;49.500;11.400;2022-08-21T06:24:55;15.32;;;5.53;;
14306;SDS011;7237;49.500;11.400;2022-08-21T06:27:22;26.42;;;4.90;;
14306;SDS011;7237;49.500;11.400;2022-08-21T06:29:49;22.77;;;5.65;;
14306;SDS011;7237;49.500;11.400;2022-08-21T06:32:18;17.70;;;4.75;;
14306;SDS011;7237;49.500;11.400;2022-08-21T06:34:45;16.17;;;5.45;;
14306;SDS011;7237;49.500;11.400;2022-08-21T06:37:12;11.77;;;4.57;;
14306;SDS011;7237;49.500;11.400;2022-08-21T06:39:39;22.95;;;5.28;;
14306;SDS011;7237;49.500;11.400;2022-08-21T06:42:06;16.58;;;4.22;;
14306;SDS011;7237;49.500;11.400;2022-08-21T06:44:39;7.95;;;4.68;;
14306;SDS011;7237;49.500;11.400;2022-08-21T06:47:06;11.60;;;4.30;;
14306;SDS011;7237;49.500;11.400;2022-08-21T06:49:34;16.48;;;4.65;;
14306;SDS011;7237;49.500;11.400;2022-08-21T06:52:01;23.05;;;5.05;;
14306;SDS011;7237;49.500;11.400;2022-08-21T06:54:29;12.77;;;4.03;;
14306;SDS011;7237;49.500;11.400;2022-08-21T06:56:56;20.73;;;4.95;;
14306;SDS011;7237;49.500;11.400;2022-08-21T06:59:23;12.15;;;4.60;;
14306;SDS011;7237;49.500;11.400;2022-08-21T07:01:50;7.30;;;4.47;;
14306;SDS011;7237;49.500;11.400;2022-08-21T07:04:17;15.45;;;5.28;;
14306;SDS011;7237;49.500;11.400;2022-08-21T07:06:46;5.68;;;5.05;;
14306;SDS011;7237;49.500;11.400;2022-08-21T07:09:13;14.23;;;4.95;;
14306;SDS011;7237;49.500;11.400;2022-08-21T07:11:40;13.75;;;5.53;;
14306;SDS011;7237;49.500;11.400;2022-08-21T07:14:07;4.97;;;4.57;;
14306;SDS011;7237;49.500;11.400;2022-08-21T07:16:34;12.20;;;5.18;;
14306;SDS011;7237;49.500;11.400;2022-08-21T07:19:01;11.77;;;5.22;;
14306;SDS011;7237;49.500;11.400;2022-08-21T07:21:28;8.40;;;5.13;;
14306;SDS011;7237;49.500;11.400;2022-08-21T07:23:57;7.80;;;5.15;;
14306;SDS011;7237;49.500;11.400;2022-08-21T07:26:24;5.95;;;4.82;;
14306;SDS011;7237;49.500;11.400;2022-08-21T07:28:51;18.77;;;5.35;;
14306;SDS011;7237;49.500;11.400;2022-08-21T07:31:20;6.32;;;5.40;;
14306;SDS011;7237;49.500;11.400;2022-08-21T07:33:48;20.52;;;5.57;;
14306;SDS011;7237;49.500;11.400;2022-08-21T07:36:15;11.73;;;5.97;;
14306;SDS011;7237;49.500;11.400;2022-08-21T07:38:42;11.65;;;7.00;;
14306;SDS011;7237;49.500;11.400;2022-08-21T07:41:13;7.05;;;6.35;;
14306;SDS011;7237;49.500;11.400;2022-08-21T07:43:41;11.38;;;6.72;;
14306;SDS011;7237;49.500;11.400;2022-08-21T07:46:08;6.85;;;6.18;;
14306;SDS011;7237;49.500;11.400;2022-08-21T07:48:35;7.97;;;7.28;;
14306;SDS011;7237;49.500;11.400;2022-08-21T07:51:04;16.05;;;7.45;;
14306;SDS011;7237;49.500;11.400;2022-08-21T07:53:32;8.77;;;7.30;;
14306;SDS011;7237;49.500;11.400;2022-08-21T07:55:59;8.98;;;8.18;;
14306;SDS011;7237;49.500;11.400;2022-08-21T07:58:28;8.80;;;7.80;;
14306;SDS011;7237;49.500;11.400;2022-08-21T08:00:55;8.82;;;7.50;;
14306;SDS011;7237;49.500;11.400;2022-08-21T08:03:22;8.57;;;7.85;;
14306;SDS011;7237;49.500;11.400;2022-08-21T08:05:49;9.25;;;8.35;;
14306;SDS011;7237;49.500;11.400;2022-08-21T08:08:16;9.70;;;8.70;;
14306;SDS011;7237;49.500;11.400;2022-08-21T08:10:43;8.82;;;7.93;;
14306;SDS011;7237;49.500;11.400;2022-08-21T08:13:10;9.02;;;8.23;;
14306;SDS011;7237;49.500;11.400;2022-08-21T08:15:39;9.70;;;8.90;;
14306;SDS011;7237;49.500;11.400;2022-08-21T08:18:06;9.45;;;8.55;;
14306;SDS011;7237;49.500;11.400;2022-08-21T08:20:33;10.02;;;9.00;;
14306;SDS011;7237;49.500;11.400;2022-08-21T08:23:00;10.35;;;9.45;;
14306;SDS011;7237;49.500;11.400;2022-08-21T08:25:27;10.55;;;9.60;;
14306;SDS011;7237;49.500;11.400;2022-08-21T08:27:54;10.05;;;9.15;;
14306;SDS011;7237;49.500;11.400;2022-08-21T08:30:21;10.55;;;9.20;;
14306;SDS011;7237;49.500;11.400;2022-08-21T08:32:50;10.10;;;9.20;;
14306;SDS011;7237;49.500;11.400;2022-08-21T08:35:17;10.55;;;9.65;;
14306;SDS011;7237;49.500;11.400;2022-08-21T08:37:44;10.35;;;9.45;;
14306;SDS011;7237;49.500;11.400;2022-08-21T08:40:13;10.45;;;9.45;;
14306;SDS011;7237;49.500;11.400;2022-08-21T08:42:40;10.95;;;9.93;;
14306;SDS011;7237;49.500;11.400;2022-08-21T08:45:08;11.30;;;10.30;;
14306;SDS011;7237;49.500;11.400;2022-08-21T08:47:37;10.20;;;9.38;;
14306;SDS011;7237;49.500;11.400;2022-08-21T08:50:09;10.77;;;9.88;;
14306;SDS011;7237;49.500;11.400;2022-08-21T08:52:40;10.38;;;9.48;;
14306;SDS011;7237;49.500;11.400;2022-08-21T08:55:09;11.02;;;10.10;;
14306;SDS011;7237;49.500;11.400;2022-08-21T08:57:38;10.85;;;9.95;;
14306;SDS011;7237;49.500;11.400;2022-08-21T09:00:07;11.43;;;10.43;;
14306;SDS011;7237;49.500;11.400;2022-08-21T09:02:35;10.10;;;9.10;;
14306;SDS011;7237;49.500;11.400;2022-08-21T09:05:05;10.88;;;9.88;;
14306;SDS011;7237;49.500;11.400;2022-08-21T09:07:35;10.43;;;9.25;;
14306;SDS011;7237;49.500;11.400;2022-08-21T09:10:11;10.85;;;9.95;;
14306;SDS011;7237;49.500;11.400;2022-08-21T09:12:39;11.00;;;10.10;;
14306;SDS011;7237;49.500;11.400;2022-08-21T09:15:12;11.07;;;10.13;;
14306;SDS011;7237;49.500;11.400;2022-08-21T09:17:46;9.70;;;8.85;;
14306;SDS011;7237;49.500;11.400;2022-08-21T09:20:18;11.07;;;10.07;;
14306;SDS011;7237;49.500;11.400;2022-08-21T09:22:50;11.18;;;10.18;;
14306;SDS011;7237;49.500;11.400;2022-08-21T09:25:20;10.35;;;9.45;;
14306;SDS011;7237;49.500;11.400;2022-08-21T09:27:48;10.23;;;9.18;;
14306;SDS011;7237;49.500;11.400;2022-08-21T09:30:15;10.18;;;9.27;;
14306;SDS011;7237;49.500;11.400;2022-08-21T09:32:42;10.18;;;9.27;;
14306;SDS011;7237;49.500;11.400;2022-08-21T09:35:11;10.73;;;9.82;;
14306;SDS011;7237;49.500;11.400;2022-08-21T09:37:46;10.85;;;9.80;;
14306;SDS011;7237;49.500;11.400;2022-08-21T09:40:19;11.30;;;10.30;;
14306;SDS011;7237;49.500;11.400;2022-08-21T09:42:53;10.27;;;9.38;;
14306;SDS011;7237;49.500;11.400;2022-08-21T09:45:21;11.95;;;10.82;;
14306;SDS011;7237;49.500;11.400;2022-08-21T09:47:48;11.43;;;10.25;;
14306;SDS011;7237;49.500;11.400;2022-08-21T09:50:16;11.05;;;10.15;;
14306;SDS011;7237;49.500;11.400;2022-08-21T09:52:45;11.93;;;10.73;;
14306;SDS011;7237;49.500;11.400;2022-08-21T09:55:18;10.65;;;9.75;;
14306;SDS011;7237;49.500;11.400;2022-08-21T09:58:04;11.07;;;10.07;;
14306;SDS011;7237;49.500;11.400;2022-08-21T10:00:33;10.43;;;9.43;;
14306;SDS011;7237;49.500;11.400;2022-08-21T10:03:07;10.43;;;9.52;;
14306;SDS011;7237;49.500;11.400;2022-08-21T10:05:35;11.27;;;10.20;;
14306;SDS011;7237;49.500;11.400;2022-08-21T10:08:02;11.43;;;10.25;;
14306;SDS011;7237;49.500;11.400;2022-08-21T10:10:31;11.05;;;9.93;;
14306;SDS011;7237;49.500;11.400;2022-08-21T10:13:02;10.20;;;9.30;;
14306;SDS011;7237;49.500;11.400;2022-08-21T10:15:40;9.52;;;8.68;;
14306;SDS011;7237;49.500;11.400;2022-08-21T10:18:12;10.80;;;9.90;;
14306;SDS011;7237;49.500;11.400;2022-08-21T10:20:43;9.82;;;8.95;;
14306;SDS011;7237;49.500;11.400;2022-08-21T10:23:16;10.10;;;9.20;;
14306;SDS011;7237;49.500;11.400;2022-08-21T10:25:47;9.45;;;8.65;;
14306;SDS011;7237;49.500;11.400;2022-08-21T10:28:16;10.32;;;9.43;;
14306;SDS011;7237;49.500;11.400;2022-08-21T10:30:48;9.27;;;8.55;;
14306;SDS011;7237;49.500;11.400;2022-08-21T10:33:20;10.40;;;9.50;;
14306;SDS011;7237;49.500;11.400;2022-08-21T10:35:53;9.65;;;8.73;;
14306;SDS011;7237;49.500;11.400;2022-08-21T10:41:11;9.40;;;8.60;;
14306;SDS011;7237;49.500;11.400;2022-08-21T10:43:43;9.05;;;8.20;;
14306;SDS011;7237;49.500;11.400;2022-08-21T10:46:14;9.32;;;8.50;;
14306;SDS011;7237;49.500;11.400;2022-08-21T10:48:45;10.00;;;8.70;;
14306;SDS011;7237;49.500;11.400;2022-08-21T10:51:15;8.52;;;7.70;;
14306;SDS011;7237;49.500;11.400;2022-08-21T10:53:47;8.45;;;7.75;;
14306;SDS011;7237;49.500;11.400;2022-08-21T10:56:18;9.68;;;8.88;;
14306;SDS011;7237;49.500;11.400;2022-08-21T10:58:49;8.63;;;7.90;;
14306;SDS011;7237;49.500;11.400;2022-08-21T11:01:19;8.52;;;7.82;;
14306;SDS011;7237;49.500;11.400;2022-08-21T11:03:50;9.57;;;8.77;;
14306;SDS011;7237;49.500;11.400;2022-08-21T11:06:19;9.25;;;8.45;;
14306;SDS011;7237;49.500;11.400;2022-08-21T11:08:49;8.27;;;7.53;;
14306;SDS011;7237;49.500;11.400;2022-08-21T11:11:20;8.90;;;7.95;;
14306;SDS011;7237;49.500;11.400;2022-08-21T11:13:50;8.70;;;7.85;;
14306;SDS011;7237;49.500;11.400;2022-08-21T11:16:21;8.52;;;7.60;;
14306;SDS011;7237;49.500;11.400;2022-08-21T11:18:50;8.55;;;7.85;;
14306;SDS011;7237;49.500;11.400;2022-08-21T11:21:30;8.35;;;7.65;;
14306;SDS011;7237;49.500;11.400;2022-08-21T11:24:00;8.38;;;7.68;;
14306;SDS011;7237;49.500;11.400;2022-08-21T11:26:30;9.25;;;8.48;;
14306;SDS011;7237;49.500;11.400;2022-08-21T11:28:58;7.95;;;7.18;;
14306;SDS011;7237;49.500;11.400;2022-08-21T11:31:31;9.10;;;7.38;;
14306;SDS011;7237;49.500;11.400;2022-08-21T11:34:07;7.90;;;7.30;;
14306;SDS011;7237;49.500;11.400;2022-08-21T11:36:37;6.97;;;6.38;;
14306;SDS011;7237;49.500;11.400;2022-08-21T11:39:06;8.50;;;7.70;;
14306;SDS011;7237;49.500;11.400;2022-08-21T11:41:40;7.43;;;6.72;;
14306;SDS011;7237;49.500;11.400;2022-08-21T11:44:10;8.20;;;6.80;;
14306;SDS011;7237;49.500;11.400;2022-08-21T11:46:47;10.75;;;6.55;;
14306;SDS011;7237;49.500;11.400;2022-08-21T11:49:21;6.60;;;6.10;;
14306;SDS011;7237;49.500;11.400;2022-08-21T11:51:52;6.95;;;6.25;;
14306;SDS011;7237;49.500;11.400;2022-08-21T11:54:22;6.57;;;6.07;;
14306;SDS011;7237;49.500;11.400;2022-08-21T11:56:51;6.45;;;5.82;;
14306;SDS011;7237;49.500;11.400;2022-08-21T11:59:21;6.40;;;5.57;;
14306;SDS011;7237;49.500;11.400;2022-08-21T12:01:50;6.45;;;5.88;;
14306;SDS011;7237;49.500;11.400;2022-08-21T12:04:18;5.40;;;5.00;;
14306;SDS011;7237;49.500;11.400;2022-08-21T12:06:49;6.00;;;5.40;;
14306;SDS011;7237;49.500;11.400;2022-08-21T12:12:06;5.45;;;4.95;;
14306;SDS011;7237;49.500;11.400;2022-08-21T12:14:37;5.25;;;4.85;;
14306;SDS011;7237;49.500;11.400;2022-08-21T12:17:07;5.10;;;4.70;;
14306;SDS011;7237;49.500;11.400;2022-08-21T12:19:34;5.30;;;4.90;;
14306;SDS011;7237;49.500;11.400;2022-08-21T12:22:08;5.30;;;4.90;;
14306;SDS011;7237;49.500;11.400;2022-08-21T12:24:36;5.10;;;4.50;;
14306;SDS011;7237;49.500;11.400;2022-08-21T12:27:13;4.30;;;4.00;;
14306;SDS011;7237;49.500;11.400;2022-08-21T12:29:45;4.22;;;3.92;;
14306;SDS011;7237;49.500;11.400;2022-08-21T12:32:22;17.50;;;13.00;;
14306;SDS011;7237;49.500;11.400;2022-08-21T12:34:50;4.88;;;4.10;;
14306;SDS011;7237;49.500;11.400;2022-08-21T12:37:20;3.85;;;3.55;;
14306;SDS011;7237;49.500;11.400;2022-08-21T12:39:49;3.65;;;3.30;;
14306;SDS011;7237;49.500;11.400;2022-08-21T12:42:19;3.75;;;3.45;;
14306;SDS011;7237;49.500;11.400;2022-08-21T12:44:48;3.90;;;3.60;;
14306;SDS011;7237;49.500;11.400;2022-08-21T12:47:17;4.75;;;3.78;;
14306;SDS011;7237;49.500;11.400;2022-08-21T12:49:52;3.80;;;3.50;;
14306;SDS011;7237;49.500;11.400;2022-08-21T12:52:22;3.90;;;3.60;;
14306;SDS011;7237;49.500;11.400;2022-08-21T12:54:49;3.80;;;3.50;;
14306;SDS011;7237;49.500;11.400;2022-08-21T12:57:17;3.90;;;3.60;;
14306;SDS011;7237;49.500;11.400;2022-08-21T12:59:44;3.35;;;3.15;;
14306;SDS011;7237;49.500;11.400;2022-08-21T13:02:14;4.93;;;3.70;;
14306;SDS011;7237;49.500;11.400;2022-08-21T13:04:42;4.78;;;3.08;;
14306;SDS011;7237;49.500;11.400;2022-08-21T13:07:12;3.55;;;3.30;;
14306;SDS011;7237;49.500;11.400;2022-08-21T13:09:41;3.33;;;3.13;;
14306;SDS011;7237;49.500;11.400;2022-08-21T13:12:10;3.55;;;3.15;;
14306;SDS011;7237;49.500;11.400;2022-08-21T13:14:38;3.45;;;3.25;;
14306;SDS011;7237;49.500;11.400;2022-08-21T13:17:06;3.55;;;3.17;;
14306;SDS011;7237;49.500;11.400;2022-08-21T13:19:33;3.20;;;3.00;;
14306;SDS011;7237;49.500;11.400;2022-08-21T13:22:00;3.25;;;2.88;;
14306;SDS011;7237;49.500;11.400;2022-08-21T13:24:30;3.70;;;3.13;;
14306;SDS011;7237;49.500;11.400;2022-08-21T13:26:58;3.08;;;2.88;;
14306;SDS011;7237;49.500;11.400;2022-08-21T13:29:28;3.28;;;2.97;;
14306;SDS011;7237;49.500;11.400;2022-08-21T13:31:56;3.78;;;3.00;;
14306;SDS011;7237;49.500;11.400;2022-08-21T13:34:24;3.03;;;2.78;;
14306;SDS011;7237;49.500;11.400;2022-08-21T13:36:52;2.95;;;2.75;;
14306;SDS011;7237;49.500;11.400;2022-08-21T13:39:21;3.30;;;2.95;;
14306;SDS011;7237;49.500;11.400;2022-08-21T13:41:50;2.70;;;2.50;;
14306;SDS011;7237;49.500;11.400;2022-08-21T13:44:20;3.80;;;3.00;;
14306;SDS011;7237;49.500;11.400;2022-08-21T13:46:51;3.35;;;2.78;;
14306;SDS011;7237;49.500;11.400;2022-08-21T13:49:19;3.00;;;2.80;;
14306;SDS011;7237;49.500;11.400;2022-08-21T13:51:47;2.78;;;2.58;;
14306;SDS011;7237;49.500;11.400;2022-08-21T13:54:21;2.72;;;2.53;;
14306;SDS011;7237;49.500;11.400;2022-08-21T13:56:50;3.33;;;3.03;;
14306;SDS011;7237;49.500;11.400;2022-08-21T13:59:24;3.20;;;2.90;;
14306;SDS011;7237;49.500;11.400;2022-08-21T14:01:52;3.13;;;2.50;;
14306;SDS011;7237;49.500;11.400;2022-08-21T14:04:24;2.60;;;2.40;;
14306;SDS011;7237;49.500;11.400;2022-08-21T14:06:52;2.75;;;2.40;;
14306;SDS011;7237;49.500;11.400;2022-08-21T14:09:22;2.50;;;2.30;;
14306;SDS011;7237;49.500;11.400;2022-08-21T14:11:53;2.55;;;2.35;;
14306;SDS011;7237;49.500;11.400;2022-08-21T14:14:22;2.72;;;2.53;;
14306;SDS011;7237;49.500;11.400;2022-08-21T14:16:53;2.70;;;2.50;;
14306;SDS011;7237;49.500;11.400;2022-08-21T14:19:21;3.17;;;2.88;;
14306;SDS011;7237;49.500;11.400;2022-08-21T14:21:48;3.53;;;2.60;;
14306;SDS011;7237;49.500;11.400;2022-08-21T14:24:24;2.47;;;2.30;;
14306;SDS011;7237;49.500;11.400;2022-08-21T14:26:53;3.72;;;2.47;;
14306;SDS011;7237;49.500;11.400;2022-08-21T14:29:22;3.58;;;2.70;;
14306;SDS011;7237;49.500;11.400;2022-08-21T14:31:51;3.35;;;2.50;;
14306;SDS011;7237;49.500;11.400;2022-08-21T14:34:18;2.53;;;2.33;;
14306;SDS011;7237;49.500;11.400;2022-08-21T14:36:46;3.22;;;2.28;;
14306;SDS011;7237;49.500;11.400;2022-08-21T14:39:14;2.40;;;2.20;;
14306;SDS011;7237;49.500;11.400;2022-08-21T14:41:41;2.35;;;2.17;;
14306;SDS011;7237;49.500;11.400;2022-08-21T14:44:08;2.80;;;2.53;;
14306;SDS011;7237;49.500;11.400;2022-08-21T14:46:37;2.40;;;2.22;;
14306;SDS011;7237;49.500;11.400;2022-08-21T14:49:04;2.40;;;2.20;;
14306;SDS011;7237;49.500;11.400;2022-08-21T14:51:31;2.70;;;2.50;;